createdAt,value
2018-06-22T00:02:12.591Z,11.80
2018-06-22T00:04:41.157Z,11.80
2018-06-22T00:07:09.839Z,11.80
2018-06-22T00:09:38.306Z,11.80
2018-06-22T00:12:06.820Z,11.80
2018-06-22T00:14:35.295Z,11.80
2018-06-22T00:17:03.754Z,11.90
2018-06-22T00:19:32.215Z,11.80
2018-06-22T00:22:00.690Z,11.70
2018-06-22T00:24:29.358Z,11.80
2018-06-22T00:26:57.838Z,11.80
2018-06-22T00:29:26.524Z,11.80
2018-06-22T00:31:54.977Z,11.80
2018-06-22T00:34:23.583Z,11.90
2018-06-22T00:36:52.025Z,11.90
2018-06-22T00:39:20.482Z,11.90
2018-06-22T00:44:17.159Z,11.90
2018-06-22T00:46:45.631Z,11.90
2018-06-22T00:49:14.343Z,11.80
2018-06-22T00:51:42.940Z,11.80
2018-06-22T00:54:13.821Z,11.80
2018-06-22T00:56:42.398Z,11.80
2018-06-22T00:59:11.578Z,11.80
2018-06-22T01:01:40.196Z,11.90
2018-06-22T01:04:09.271Z,11.80
2018-06-22T01:06:37.836Z,11.80
2018-06-22T01:09:08.810Z,11.80
2018-06-22T01:11:37.354Z,11.80
2018-06-22T01:14:06.283Z,11.80
2018-06-22T01:16:34.775Z,11.90
2018-06-22T01:19:03.267Z,11.90
2018-06-22T01:21:31.955Z,11.90
2018-06-22T01:24:00.459Z,11.80
2018-06-22T01:26:28.998Z,11.80
2018-06-22T01:29:02.652Z,11.70
2018-06-22T01:31:31.132Z,11.70
2018-06-22T01:33:59.602Z,11.80
2018-06-22T01:36:28.126Z,11.80
2018-06-22T01:38:57.111Z,11.80
2018-06-22T01:41:26.297Z,11.80
2018-06-22T01:43:54.766Z,11.70
2018-06-22T01:46:23.261Z,11.70
2018-06-22T01:48:51.742Z,11.70
2018-06-22T01:51:20.325Z,11.70
2018-06-22T01:56:17.082Z,11.60
2018-06-22T01:58:45.648Z,11.60
2018-06-22T02:01:14.095Z,11.60
2018-06-22T02:03:42.582Z,11.70
2018-06-22T02:06:11.304Z,11.60
2018-06-22T02:08:39.979Z,11.70
2018-06-22T02:11:08.459Z,11.70
2018-06-22T02:13:37.137Z,11.70
2018-06-22T02:16:05.720Z,11.70
2018-06-22T02:18:34.558Z,11.60
2018-06-22T02:21:03.223Z,11.60
2018-06-22T02:23:31.699Z,11.60
2018-06-22T02:28:28.383Z,11.60
2018-06-22T02:30:57.111Z,11.60
2018-06-22T02:33:25.575Z,11.60
2018-06-22T02:35:54.104Z,11.50
2018-06-22T02:38:22.773Z,11.50
2018-06-22T02:40:51.342Z,11.50
2018-06-22T02:43:19.799Z,11.50
2018-06-22T02:45:48.536Z,11.40
2018-06-22T02:48:17.014Z,11.40
2018-06-22T02:50:45.503Z,11.50
2018-06-22T02:53:13.993Z,11.50
2018-06-22T02:55:42.646Z,11.50
2018-06-22T02:58:11.174Z,11.50
2018-06-22T03:00:39.791Z,11.40
2018-06-22T03:03:08.367Z,11.40
2018-06-22T03:05:36.927Z,11.40
2018-06-22T03:08:05.835Z,11.40
2018-06-22T03:10:34.562Z,11.50
2018-06-22T03:13:03.184Z,11.50
2018-06-22T03:15:31.672Z,11.50
2018-06-22T03:18:00.132Z,11.50
2018-06-22T03:20:29.023Z,11.50
2018-06-22T03:22:57.595Z,11.50
2018-06-22T03:27:54.371Z,11.50
2018-06-22T03:30:23.003Z,11.50
2018-06-22T03:32:51.822Z,11.50
2018-06-22T03:35:20.418Z,11.50
2018-06-22T03:37:48.906Z,11.50
2018-06-22T03:40:17.356Z,11.50
2018-06-22T03:42:45.830Z,11.50
2018-06-22T03:45:14.279Z,11.50
2018-06-22T03:47:43.039Z,11.50
2018-06-22T03:50:11.499Z,11.40
2018-06-22T03:52:39.974Z,11.40
2018-06-22T03:55:08.443Z,11.40
2018-06-22T03:57:36.949Z,11.30
2018-06-22T04:00:05.438Z,11.30
2018-06-22T04:02:33.948Z,11.20
2018-06-22T04:05:02.670Z,11.20
2018-06-22T04:07:31.148Z,11.20
2018-06-22T04:09:59.790Z,11.20
2018-06-22T04:12:28.243Z,11.20
2018-06-22T04:14:56.900Z,11.10
2018-06-22T04:17:25.407Z,11.00
2018-06-22T04:19:53.939Z,10.90
2018-06-22T04:22:22.411Z,10.80
2018-06-22T04:24:50.889Z,10.80
2018-06-22T04:27:19.373Z,10.80
2018-06-22T04:29:47.958Z,10.80
2018-06-22T04:32:16.468Z,10.80
2018-06-22T04:34:45.047Z,10.70
2018-06-22T04:37:13.643Z,10.70
2018-06-22T04:39:42.212Z,10.70
2018-06-22T04:42:10.811Z,10.70
2018-06-22T04:44:39.415Z,10.70
2018-06-22T04:47:07.954Z,10.80
2018-06-22T04:49:36.419Z,10.90
2018-06-22T04:52:05.128Z,10.90
2018-06-22T04:57:01.895Z,10.90
2018-06-22T04:59:30.363Z,10.90
2018-06-22T05:01:59.066Z,10.90
2018-06-22T05:04:27.546Z,10.90
2018-06-22T05:06:56.133Z,10.90
2018-06-22T05:09:24.716Z,10.90
2018-06-22T05:11:53.266Z,10.90
2018-06-22T05:14:21.851Z,10.90
2018-06-22T05:16:50.459Z,10.90
2018-06-22T05:19:19.160Z,10.80
2018-06-22T05:21:47.709Z,10.80
2018-06-22T05:24:16.194Z,10.70
2018-06-22T05:26:44.652Z,10.80
2018-06-22T05:29:13.268Z,10.70
2018-06-22T05:31:41.762Z,10.70
2018-06-22T05:34:10.247Z,10.70
2018-06-22T05:36:38.899Z,10.70
2018-06-22T05:39:09.514Z,10.60
2018-06-22T05:41:38.306Z,10.50
2018-06-22T05:44:07.296Z,10.60
2018-06-22T05:46:35.915Z,10.60
2018-06-22T05:49:04.692Z,10.50
2018-06-22T05:51:33.367Z,10.60
2018-06-22T05:54:01.922Z,10.70
2018-06-22T05:56:30.460Z,10.70
2018-06-22T05:58:58.990Z,10.60
2018-06-22T06:01:27.554Z,10.60
2018-06-22T06:03:56.115Z,10.60
2018-06-22T06:06:24.658Z,10.70
2018-06-22T06:08:53.376Z,10.70
2018-06-22T06:11:21.907Z,10.70
2018-06-22T06:13:50.411Z,10.70
2018-06-22T06:16:18.974Z,10.60
2018-06-22T06:18:47.502Z,10.60
2018-06-22T06:21:16.159Z,10.50
2018-06-22T06:23:44.722Z,10.60
2018-06-22T06:26:13.319Z,10.50
2018-06-22T06:28:41.819Z,10.60
2018-06-22T06:31:10.315Z,10.50
2018-06-22T06:33:38.870Z,10.50
2018-06-22T06:36:07.581Z,10.50
2018-06-22T06:38:36.142Z,10.50
2018-06-22T06:41:04.697Z,10.50
2018-06-22T06:43:33.166Z,10.50
2018-06-22T06:46:01.744Z,10.50
2018-06-22T06:48:30.258Z,10.50
2018-06-22T06:50:58.902Z,10.60
2018-06-22T06:53:27.506Z,10.60
2018-06-22T06:55:56.020Z,10.60
2018-06-22T06:58:24.706Z,10.60
2018-06-22T07:00:53.235Z,10.50
2018-06-22T07:03:21.792Z,10.60
2018-06-22T07:05:50.279Z,10.70
2018-06-22T07:08:18.870Z,10.70
2018-06-22T07:10:47.486Z,10.70
2018-06-22T07:13:16.271Z,10.70
2018-06-22T07:18:13.076Z,10.80
2018-06-22T07:20:41.771Z,10.80
2018-06-22T07:23:10.298Z,10.80
2018-06-22T07:25:38.951Z,10.90
2018-06-22T07:28:07.437Z,11.00
2018-06-22T07:30:36.005Z,11.10
2018-06-22T07:33:04.626Z,11.10
2018-06-22T07:35:33.126Z,11.30
2018-06-22T07:38:01.820Z,11.50
2018-06-22T07:40:30.274Z,11.40
2018-06-22T07:42:58.891Z,11.40
2018-06-22T07:45:27.369Z,11.40
2018-06-22T07:47:56.061Z,11.50
2018-06-22T07:50:24.595Z,11.50
2018-06-22T07:52:53.307Z,11.60
2018-06-22T07:55:21.779Z,11.80
2018-06-22T07:57:50.287Z,11.80
2018-06-22T08:00:18.884Z,12.00
2018-06-22T08:02:47.366Z,12.00
2018-06-22T08:05:16.019Z,12.10
2018-06-22T08:07:44.531Z,12.20
2018-06-22T08:10:13.119Z,12.20
2018-06-22T08:12:41.578Z,12.20
2018-06-22T08:15:10.284Z,12.00
2018-06-22T08:17:38.813Z,12.00
2018-06-22T08:20:07.420Z,11.90
2018-06-22T08:22:35.963Z,11.80
2018-06-22T08:25:04.586Z,11.80
2018-06-22T08:27:33.083Z,11.80
2018-06-22T08:30:01.610Z,11.90
2018-06-22T08:32:30.321Z,11.90
2018-06-22T08:34:58.907Z,12.00
2018-06-22T08:37:27.356Z,12.00
2018-06-22T08:39:55.840Z,12.00
2018-06-22T08:42:24.564Z,12.00
2018-06-22T08:44:53.076Z,12.10
2018-06-22T08:47:21.643Z,12.10
2018-06-22T08:49:50.157Z,12.10
2018-06-22T08:52:18.780Z,12.10
2018-06-22T08:54:47.303Z,12.00
2018-06-22T08:57:15.875Z,12.00
2018-06-22T08:59:44.514Z,12.00
2018-06-22T09:02:12.995Z,12.00
2018-06-22T09:04:41.662Z,12.00
2018-06-22T09:07:10.256Z,12.00
2018-06-22T09:09:38.835Z,11.90
2018-06-22T09:12:07.492Z,11.90
2018-06-22T09:14:36.151Z,11.80
2018-06-22T09:17:04.815Z,11.90
2018-06-22T09:19:33.361Z,11.90
2018-06-22T09:22:01.814Z,11.90
2018-06-22T09:24:30.413Z,11.90
2018-06-22T09:26:59.023Z,11.80
2018-06-22T09:31:55.955Z,11.80
2018-06-22T09:34:24.432Z,11.90
2018-06-22T09:36:53.099Z,12.00
2018-06-22T09:39:21.494Z,12.00
2018-06-22T09:41:49.991Z,12.10
2018-06-22T09:44:30.584Z,12.10
2018-06-22T09:46:59.346Z,12.10
2018-06-22T09:49:28.238Z,12.10
2018-06-22T09:51:57.353Z,12.00
2018-06-22T09:54:26.660Z,12.00
2018-06-22T09:59:24.237Z,12.00
2018-06-22T10:01:54.031Z,12.10
2018-06-22T10:04:23.523Z,12.20
2018-06-22T10:06:52.650Z,12.20
2018-06-22T10:09:21.237Z,12.30
2018-06-22T10:11:49.830Z,12.30
2018-06-22T10:14:18.306Z,12.30
2018-06-22T10:16:46.783Z,12.40
2018-06-22T10:19:15.402Z,12.50
2018-06-22T10:21:43.929Z,12.70
2018-06-22T10:24:12.466Z,12.80
2018-06-22T10:26:41.039Z,12.90
2018-06-22T10:29:09.575Z,12.90
2018-06-22T10:31:38.040Z,12.80
2018-06-22T10:34:06.662Z,12.80
2018-06-22T10:36:35.214Z,12.60
2018-06-22T10:39:05.335Z,12.50
2018-06-22T10:41:33.918Z,12.50
2018-06-22T10:44:02.583Z,12.60
2018-06-22T10:46:31.159Z,12.70
2018-06-22T10:48:59.804Z,12.70
2018-06-22T10:51:28.394Z,12.80
2018-06-22T10:53:56.987Z,12.90
2018-06-22T10:56:25.699Z,13.00
2018-06-22T10:58:54.264Z,13.30
2018-06-22T11:01:22.811Z,13.60
2018-06-22T11:03:51.420Z,13.70
2018-06-22T11:06:20.020Z,13.80
2018-06-22T11:08:48.585Z,14.00
2018-06-22T11:11:17.103Z,14.10
2018-06-22T11:13:45.628Z,14.20
2018-06-22T11:16:14.171Z,14.20
2018-06-22T11:18:42.899Z,14.30
2018-06-22T11:21:11.452Z,14.50
2018-06-22T11:23:40.011Z,14.50
2018-06-22T11:26:08.704Z,14.40
2018-06-22T11:28:37.343Z,14.30
2018-06-22T11:31:05.888Z,14.30
2018-06-22T11:33:34.405Z,14.40
2018-06-22T11:36:02.976Z,14.40
2018-06-22T11:38:31.506Z,14.40
2018-06-22T11:40:59.996Z,14.40
2018-06-22T11:43:28.563Z,14.50
2018-06-22T11:45:57.105Z,14.50
2018-06-22T11:48:25.635Z,14.40
2018-06-22T11:50:54.266Z,14.30
2018-06-22T11:53:22.780Z,14.30
2018-06-22T11:55:51.296Z,14.30
2018-06-22T11:58:19.835Z,14.40
2018-06-22T12:00:48.379Z,14.60
2018-06-22T12:03:16.879Z,14.80
2018-06-22T12:05:45.538Z,15.00
2018-06-22T12:08:14.193Z,15.20
2018-06-22T12:10:42.876Z,15.40
2018-06-22T12:13:11.372Z,15.50
2018-06-22T12:15:39.942Z,15.80
2018-06-22T12:18:08.419Z,15.90
2018-06-22T12:20:36.976Z,16.00
2018-06-22T12:23:05.786Z,15.90
2018-06-22T12:25:34.335Z,15.90
2018-06-22T12:28:02.967Z,16.10
2018-06-22T12:32:59.761Z,16.00
2018-06-22T12:35:28.286Z,15.80
2018-06-22T12:37:56.902Z,15.60
2018-06-22T12:40:25.554Z,15.30
2018-06-22T12:42:54.115Z,14.90
2018-06-22T12:45:22.722Z,14.50
2018-06-22T12:47:51.267Z,14.20
2018-06-22T12:50:19.913Z,14.00
2018-06-22T12:52:48.405Z,13.80
2018-06-22T12:55:17.079Z,13.70
2018-06-22T12:57:45.589Z,13.60
2018-06-22T13:00:14.098Z,13.50
2018-06-22T13:02:42.652Z,13.40
2018-06-22T13:05:11.175Z,13.40
2018-06-22T13:07:39.810Z,13.40
2018-06-22T13:10:08.382Z,13.50
2018-06-22T13:12:37.095Z,13.50
2018-06-22T13:15:05.887Z,13.50
2018-06-22T13:17:34.621Z,13.50
2018-06-22T13:20:03.345Z,13.60
2018-06-22T13:22:31.884Z,13.70
2018-06-22T13:25:00.466Z,13.90
2018-06-22T13:27:28.981Z,14.20
2018-06-22T13:29:57.503Z,14.50
2018-06-22T13:32:26.024Z,14.80
2018-06-22T13:34:54.710Z,15.10
2018-06-22T13:42:19.767Z,15.60
2018-06-22T13:44:48.570Z,15.60
2018-06-22T13:47:17.117Z,15.60
2018-06-22T13:49:45.626Z,15.70
2018-06-22T13:52:14.183Z,15.80
2018-06-22T13:54:42.782Z,16.00
2018-06-22T13:57:11.979Z,16.10
2018-06-22T13:59:40.420Z,16.10
2018-06-22T14:02:08.939Z,16.20
2018-06-22T14:04:42.728Z,16.20
2018-06-22T14:07:11.506Z,16.10
2018-06-22T14:09:40.139Z,15.90
2018-06-22T14:12:08.795Z,15.80
2018-06-22T14:14:37.302Z,15.70
2018-06-22T14:17:06.090Z,15.70
2018-06-22T14:19:34.590Z,15.60
2018-06-22T14:22:03.391Z,15.60
2018-06-22T14:24:31.931Z,15.50
2018-06-22T14:27:00.456Z,15.50
2018-06-22T14:29:28.974Z,15.50
2018-06-22T14:31:57.694Z,15.50
2018-06-22T14:34:26.419Z,15.50
2018-06-22T14:36:55.008Z,15.50
2018-06-22T14:39:23.562Z,15.50
2018-06-22T14:41:52.168Z,15.60
2018-06-22T14:44:20.804Z,15.60
2018-06-22T14:46:49.395Z,15.70
2018-06-22T14:49:17.964Z,15.70
2018-06-22T14:51:46.534Z,15.70
2018-06-22T14:54:20.278Z,15.70
2018-06-22T14:56:54.065Z,15.60
2018-06-22T14:59:27.923Z,15.50
2018-06-22T15:02:01.972Z,15.40
2018-06-22T15:04:35.775Z,15.40
2018-06-22T15:07:09.755Z,15.30
2018-06-22T15:09:38.435Z,15.30
2018-06-22T15:12:07.307Z,15.30
2018-06-22T15:17:06.314Z,15.30
2018-06-22T15:19:34.848Z,15.50
2018-06-22T15:22:03.444Z,15.60
2018-06-22T15:24:32.047Z,15.70
2018-06-22T15:27:00.702Z,15.80
2018-06-22T15:29:29.264Z,15.80
2018-06-22T15:31:57.800Z,15.80
2018-06-22T15:34:31.602Z,15.70
2018-06-22T15:37:05.591Z,15.70
2018-06-22T15:40:42.596Z,15.60
2018-06-22T15:43:16.452Z,15.60
2018-06-22T15:45:50.403Z,15.60
2018-06-22T15:49:27.258Z,15.50
2018-06-22T15:52:01.127Z,15.50
2018-06-22T15:54:34.822Z,15.50
2018-06-22T15:57:03.396Z,15.60
2018-06-22T15:59:32.010Z,15.60
2018-06-22T16:02:05.951Z,15.60
2018-06-22T16:04:34.572Z,15.60
2018-06-22T16:07:03.071Z,15.50
2018-06-22T16:09:31.839Z,15.50
2018-06-22T16:12:05.794Z,15.50
2018-06-22T16:14:39.829Z,15.50
2018-06-22T16:17:14.004Z,15.50
2018-06-22T16:19:47.802Z,15.50
2018-06-22T16:22:21.578Z,15.50
2018-06-22T16:24:55.356Z,15.50
2018-06-22T16:27:24.092Z,15.50
2018-06-22T16:29:52.622Z,15.50
2018-06-22T16:32:21.161Z,15.60
2018-06-22T16:34:49.931Z,15.60
2018-06-22T16:37:18.672Z,15.60
2018-06-22T16:39:47.502Z,15.60
2018-06-22T16:42:15.991Z,15.50
2018-06-22T16:44:44.637Z,15.50
2018-06-22T16:47:13.376Z,15.50
2018-06-22T16:49:42.080Z,15.60
2018-06-22T16:52:10.663Z,15.80
2018-06-22T16:54:39.192Z,15.90
2018-06-22T16:57:07.713Z,16.00
2018-06-22T16:59:36.408Z,16.00
2018-06-22T17:02:05.007Z,16.10
2018-06-22T17:04:33.576Z,16.10
2018-06-22T17:07:07.449Z,16.00
2018-06-22T17:09:41.367Z,15.90
2018-06-22T17:12:15.259Z,15.80
2018-06-22T17:14:49.091Z,15.70
2018-06-22T17:17:23.212Z,15.80
2018-06-22T17:19:51.699Z,15.80
2018-06-22T17:22:20.432Z,15.80
2018-06-22T17:24:49.289Z,15.90
2018-06-22T17:27:17.895Z,15.90
2018-06-22T17:29:46.408Z,15.90
2018-06-22T17:32:15.030Z,15.90
2018-06-22T17:34:43.675Z,16.00
2018-06-22T17:37:12.278Z,16.00
2018-06-22T17:39:40.968Z,16.00
2018-06-22T17:42:09.658Z,16.00
2018-06-22T17:44:38.292Z,15.90
2018-06-22T17:47:06.987Z,15.90
2018-06-22T17:49:35.707Z,15.90
2018-06-22T17:52:04.259Z,15.90
2018-06-22T17:54:32.737Z,15.80
2018-06-22T17:57:01.299Z,15.80
2018-06-22T17:59:35.184Z,15.80
2018-06-22T18:02:09.044Z,15.60
2018-06-22T18:04:40.452Z,15.60
2018-06-22T18:07:14.598Z,15.50
2018-06-22T18:09:48.307Z,15.50
2018-06-22T18:12:22.170Z,15.40
2018-06-22T18:14:50.698Z,15.30
2018-06-22T18:19:47.972Z,15.30
2018-06-22T18:22:16.577Z,15.20
2018-06-22T18:24:45.250Z,15.10
2018-06-22T18:27:13.841Z,15.10
2018-06-22T18:29:42.476Z,15.10
2018-06-22T18:32:11.105Z,15.00
2018-06-22T18:34:39.677Z,15.00
2018-06-22T18:37:08.345Z,15.00
2018-06-22T18:39:37.147Z,15.00
2018-06-22T18:42:05.910Z,14.90
2018-06-22T18:44:34.572Z,15.00
2018-06-22T18:47:03.293Z,15.00
2018-06-22T18:49:31.790Z,15.00
2018-06-22T18:53:09.920Z,15.00
2018-06-22T18:55:43.753Z,15.00
2018-06-22T18:58:17.812Z,15.00
2018-06-22T19:01:53.777Z,14.90
2018-06-22T19:04:22.400Z,14.90
2018-06-22T19:06:50.995Z,14.80
2018-06-22T19:09:19.745Z,14.80
2018-06-22T19:11:48.412Z,14.70
2018-06-22T19:14:16.898Z,14.60
2018-06-22T19:16:45.464Z,14.60
2018-06-22T19:19:14.099Z,14.60
2018-06-22T19:21:42.882Z,14.50
2018-06-22T19:24:11.604Z,14.50
2018-06-22T19:29:08.940Z,14.40
2018-06-22T19:31:37.582Z,14.40
2018-06-22T19:34:06.159Z,14.30
2018-06-22T19:36:34.856Z,14.30
2018-06-22T19:39:03.611Z,14.20
2018-06-22T19:41:32.307Z,14.20
2018-06-22T19:44:06.113Z,14.10
2018-06-22T19:49:13.864Z,14.00
2018-06-22T19:51:47.782Z,14.00
2018-06-22T19:54:16.437Z,14.00
2018-06-22T19:56:45.223Z,13.90
2018-06-22T19:59:13.747Z,13.90
2018-06-22T20:01:42.578Z,13.90
2018-06-22T20:04:11.117Z,13.90
2018-06-22T20:06:39.665Z,13.80
2018-06-22T20:09:10.139Z,13.70
2018-06-22T20:11:38.857Z,13.70
2018-06-22T20:14:07.419Z,13.80
2018-06-22T20:16:36.169Z,13.80
2018-06-22T20:19:04.838Z,13.80
2018-06-22T20:21:33.432Z,13.70
2018-06-22T20:24:02.038Z,13.70
2018-06-22T20:26:31.160Z,13.70
2018-06-22T20:28:59.730Z,13.60
2018-06-22T20:31:33.662Z,13.50
2018-06-22T20:34:07.580Z,13.40
2018-06-22T20:36:41.493Z,13.40
2018-06-22T20:39:15.541Z,13.30
2018-06-22T20:41:49.444Z,13.30
2018-06-22T20:44:23.312Z,13.30
2018-06-22T20:46:57.238Z,13.30
2018-06-22T20:49:31.051Z,13.30
2018-06-22T20:51:59.712Z,13.30
2018-06-22T20:54:28.279Z,13.30
2018-06-22T20:56:56.931Z,13.30
2018-06-22T20:59:25.497Z,13.20
2018-06-22T21:01:54.152Z,13.20
2018-06-22T21:04:22.697Z,13.10
2018-06-22T21:06:51.623Z,13.10
2018-06-22T21:09:20.184Z,13.10
2018-06-22T21:11:48.776Z,13.10
2018-06-22T21:14:17.539Z,13.10
2018-06-22T21:16:46.211Z,13.10
2018-06-22T21:19:15.004Z,13.00
2018-06-22T21:21:48.899Z,13.00
2018-06-22T21:24:17.486Z,13.10
2018-06-22T21:26:46.475Z,13.00
2018-06-22T21:29:20.289Z,13.00
2018-06-22T21:31:54.124Z,13.00
2018-06-22T21:34:28.096Z,13.00
2018-06-22T21:37:11.727Z,13.00
2018-06-22T21:39:40.304Z,12.90
2018-06-22T21:42:08.799Z,12.80
2018-06-22T21:44:37.336Z,12.70
2018-06-22T21:47:05.988Z,12.70
2018-06-22T21:49:34.516Z,12.60
2018-06-22T21:52:03.040Z,12.50
2018-06-22T21:54:31.607Z,12.50
2018-06-22T21:57:00.480Z,12.50
2018-06-22T21:59:29.468Z,12.50
2018-06-22T22:01:58.095Z,12.50
2018-06-22T22:04:26.630Z,12.40
2018-06-22T22:06:55.363Z,12.40
2018-06-22T22:09:23.883Z,12.30
2018-06-22T22:11:55.804Z,12.40
2018-06-22T22:14:25.643Z,12.40
2018-06-22T22:16:54.510Z,12.30
2018-06-22T22:19:23.018Z,12.20
2018-06-22T22:21:51.510Z,12.20
2018-06-22T22:24:20.055Z,12.10
2018-06-22T22:26:48.618Z,12.20
2018-06-22T22:29:17.168Z,12.20
2018-06-22T22:31:45.691Z,12.10
2018-06-22T22:36:42.435Z,12.20
2018-06-22T22:39:11.104Z,12.20
2018-06-22T22:41:39.737Z,12.20
2018-06-22T22:44:08.935Z,12.30
2018-06-22T22:46:37.691Z,12.30
2018-06-22T22:49:06.306Z,12.30
2018-06-22T22:51:34.804Z,12.30
2018-06-22T22:54:03.435Z,12.20
2018-06-22T22:56:32.016Z,12.20
2018-06-22T22:59:00.559Z,12.20
2018-06-22T23:01:29.048Z,12.20
2018-06-22T23:03:57.656Z,12.20
2018-06-22T23:06:26.166Z,12.10
2018-06-22T23:08:54.656Z,12.10
2018-06-22T23:11:23.174Z,12.20
2018-06-22T23:13:51.675Z,12.10
2018-06-22T23:16:20.193Z,12.10
2018-06-22T23:21:16.976Z,12.10
2018-06-22T23:23:45.712Z,12.10
2018-06-22T23:26:14.247Z,12.10
2018-06-22T23:28:42.896Z,12.00
2018-06-22T23:31:11.412Z,12.00
2018-06-22T23:33:39.958Z,12.00
2018-06-22T23:36:08.472Z,12.00
2018-06-22T23:38:37.113Z,11.90
2018-06-22T23:41:05.691Z,11.90
2018-06-22T23:43:34.399Z,11.90
2018-06-22T23:46:02.967Z,11.90
2018-06-22T23:48:31.472Z,11.80
2018-06-22T23:50:59.967Z,11.90
2018-06-22T23:53:28.478Z,11.90
2018-06-22T23:55:56.986Z,11.90
2018-06-22T23:58:25.462Z,11.90
